createdAt,value
2022-10-04T00:02:23.822Z,5.32
2022-10-04T00:04:57.870Z,5.35
2022-10-04T00:07:29.508Z,6.38
2022-10-04T00:10:01.376Z,5.13
2022-10-04T00:12:34.370Z,6.03
2022-10-04T00:15:06.179Z,5.60
2022-10-04T00:17:36.485Z,5.10
2022-10-04T00:20:28.838Z,5.35
2022-10-04T00:23:29.633Z,5.43
2022-10-04T00:25:59.733Z,5.77
2022-10-04T00:28:43.780Z,5.77
2022-10-04T00:31:19.233Z,5.45
2022-10-04T00:33:50.920Z,5.15
2022-10-04T00:36:39.908Z,5.60
2022-10-04T00:39:18.073Z,5.30
2022-10-04T00:41:58.817Z,5.63
2022-10-04T00:44:32.224Z,6.77
2022-10-04T00:47:03.431Z,5.75
2022-10-04T00:49:40.347Z,6.35
2022-10-04T00:52:14.250Z,6.07
2022-10-04T00:54:45.045Z,7.30
2022-10-04T00:57:18.664Z,6.22
2022-10-04T00:59:49.365Z,5.80
2022-10-04T01:02:21.531Z,6.25
2022-10-04T01:04:56.277Z,6.00
2022-10-04T01:07:28.885Z,6.70
2022-10-04T01:10:00.893Z,6.20
2022-10-04T01:12:41.883Z,6.10
2022-10-04T01:15:15.311Z,6.50
2022-10-04T01:18:06.337Z,7.22
2022-10-04T01:20:41.013Z,6.00
2022-10-04T01:23:12.065Z,6.45
2022-10-04T01:25:48.433Z,6.50
2022-10-04T01:28:16.620Z,6.63
2022-10-04T01:30:45.795Z,7.40
2022-10-04T01:33:14.228Z,6.70
2022-10-04T01:35:42.473Z,7.20
2022-10-04T01:38:12.848Z,7.80
2022-10-04T01:40:47.620Z,7.43
2022-10-04T01:43:19.338Z,7.38
2022-10-04T01:45:50.519Z,7.10
2022-10-04T01:48:22.804Z,7.45
2022-10-04T01:50:58.959Z,7.30
2022-10-04T01:53:31.135Z,7.85
2022-10-04T01:56:09.045Z,7.75
2022-10-04T01:58:44.131Z,7.47
2022-10-04T02:01:19.370Z,7.90
2022-10-04T02:03:55.697Z,7.47
2022-10-04T02:06:25.291Z,7.22
2022-10-04T02:08:57.706Z,8.25
2022-10-04T02:11:30.193Z,8.50
2022-10-04T02:13:59.469Z,8.05
2022-10-04T02:16:27.995Z,8.50
2022-10-04T02:18:56.603Z,7.90
2022-10-04T02:21:25.618Z,8.93
2022-10-04T02:23:55.391Z,8.30
2022-10-04T02:26:23.359Z,8.93
2022-10-04T02:28:52.117Z,9.30
2022-10-04T02:31:40.440Z,10.10
2022-10-04T02:34:09.457Z,9.00
2022-10-04T02:36:39.510Z,9.50
2022-10-04T02:39:16.457Z,9.50
2022-10-04T02:41:47.518Z,9.98
2022-10-04T02:44:19.054Z,9.32
2022-10-04T02:46:54.061Z,8.90
2022-10-04T02:49:29.816Z,9.48
2022-10-04T02:52:06.605Z,9.70
2022-10-04T02:54:41.070Z,9.20
2022-10-04T02:57:16.299Z,9.20
2022-10-04T02:59:44.217Z,8.98
2022-10-04T03:02:29.593Z,9.65
2022-10-04T03:05:02.373Z,10.23
2022-10-04T03:07:33.349Z,10.30
2022-10-04T03:10:03.756Z,10.07
2022-10-04T03:12:31.928Z,9.88
2022-10-04T03:14:59.912Z,10.13
2022-10-04T03:17:28.283Z,9.43
2022-10-04T03:19:58.350Z,9.80
2022-10-04T03:22:26.413Z,10.60
2022-10-04T03:24:57.091Z,9.90
2022-10-04T03:27:30.125Z,10.05
2022-10-04T03:29:59.514Z,10.20
2022-10-04T03:32:30.719Z,9.65
2022-10-04T03:35:00.815Z,10.17
2022-10-04T03:37:32.213Z,9.60
2022-10-04T03:40:01.759Z,9.50
2022-10-04T03:42:35.208Z,10.10
2022-10-04T03:45:08.027Z,10.40
2022-10-04T03:47:39.166Z,10.07
2022-10-04T03:50:16.291Z,10.85
2022-10-04T03:52:50.682Z,10.52
2022-10-04T03:55:19.731Z,9.90
2022-10-04T03:57:49.171Z,9.70
2022-10-04T04:00:19.196Z,10.53
2022-10-04T04:02:51.508Z,10.02
2022-10-04T04:05:25.097Z,10.80
2022-10-04T04:08:04.238Z,10.07
2022-10-04T04:10:34.945Z,10.30
2022-10-04T04:13:10.510Z,10.45
2022-10-04T04:15:43.395Z,9.98
2022-10-04T04:18:17.277Z,11.00
2022-10-04T04:20:46.562Z,11.07
2022-10-04T04:23:24.778Z,9.88
2022-10-04T04:25:56.257Z,10.60
2022-10-04T04:28:32.277Z,10.70
2022-10-04T04:31:04.575Z,11.20
2022-10-04T04:33:37.501Z,11.40
2022-10-04T04:36:07.770Z,11.50
2022-10-04T04:38:56.362Z,12.07
2022-10-04T04:41:25.109Z,10.48
2022-10-04T04:43:54.480Z,11.77
2022-10-04T04:46:27.569Z,11.57
2022-10-04T04:49:02.646Z,11.25
2022-10-04T04:51:32.804Z,11.93
2022-10-04T04:54:04.928Z,12.00
2022-10-04T04:56:33.634Z,12.15
2022-10-04T04:59:06.564Z,12.82
2022-10-04T05:01:37.539Z,12.90
2022-10-04T05:04:07.428Z,11.98
2022-10-04T05:06:37.159Z,12.88
2022-10-04T05:09:06.285Z,11.60
2022-10-04T05:11:37.975Z,12.20
2022-10-04T05:14:10.038Z,12.05
2022-10-04T05:16:42.607Z,11.50
2022-10-04T05:19:16.144Z,12.43
2022-10-04T05:21:46.635Z,11.70
2022-10-04T05:24:22.370Z,11.95
2022-10-04T05:26:52.276Z,11.57
2022-10-04T05:29:24.956Z,12.10
2022-10-04T05:32:02.873Z,12.48
2022-10-04T05:34:36.933Z,12.57
2022-10-04T05:37:32.893Z,11.90
2022-10-04T05:40:14.819Z,11.70
2022-10-04T05:42:45.396Z,12.00
2022-10-04T05:45:19.475Z,12.65
2022-10-04T05:47:50.517Z,12.00
2022-10-04T05:50:21.341Z,11.18
2022-10-04T05:52:52.473Z,12.20
2022-10-04T05:55:29.258Z,11.63
2022-10-04T05:58:19.245Z,11.68
2022-10-04T06:01:10.418Z,11.38
2022-10-04T06:04:04.898Z,11.85
2022-10-04T06:06:40.510Z,11.70
2022-10-04T06:09:16.077Z,12.18
2022-10-04T06:12:01.161Z,12.48
2022-10-04T06:14:54.941Z,11.77
2022-10-04T06:17:44.697Z,11.20
2022-10-04T06:20:39.986Z,11.65
2022-10-04T06:23:15.009Z,11.02
2022-10-04T06:25:48.651Z,12.55
2022-10-04T06:28:22.836Z,11.70
2022-10-04T06:31:06.091Z,13.57
2022-10-04T06:33:52.897Z,12.40
2022-10-04T06:36:38.661Z,13.70
2022-10-04T06:39:30.335Z,13.02
2022-10-04T06:42:25.078Z,13.02
2022-10-04T06:45:07.763Z,13.85
2022-10-04T06:47:55.194Z,14.07
2022-10-04T06:50:36.805Z,13.20
2022-10-04T06:53:27.240Z,13.55
2022-10-04T06:56:27.187Z,14.70
2022-10-04T06:59:37.945Z,13.70
2022-10-04T07:02:14.135Z,15.30
2022-10-04T07:05:07.673Z,14.70
2022-10-04T07:07:39.644Z,14.80
2022-10-04T07:10:31.048Z,15.63
2022-10-04T07:13:27.595Z,15.68
2022-10-04T07:16:10.708Z,15.32
2022-10-04T07:18:56.743Z,15.77
2022-10-04T07:21:28.393Z,15.80
2022-10-04T07:24:01.756Z,16.40
2022-10-04T07:26:34.839Z,15.63
2022-10-04T07:29:22.864Z,15.60
2022-10-04T07:31:55.256Z,15.70
2022-10-04T07:34:28.766Z,15.48
2022-10-04T07:36:59.502Z,15.23
2022-10-04T07:39:33.701Z,15.23
2022-10-04T07:42:15.210Z,15.60
2022-10-04T07:44:47.346Z,15.77
2022-10-04T07:47:21.698Z,16.27
2022-10-04T07:49:50.253Z,16.58
2022-10-04T07:52:45.588Z,16.30
2022-10-04T07:55:25.378Z,16.30
2022-10-04T07:58:07.908Z,15.60
2022-10-04T08:00:48.216Z,16.17
2022-10-04T08:03:28.316Z,15.48
2022-10-04T08:06:07.234Z,16.50
2022-10-04T08:08:50.641Z,15.70
2022-10-04T08:11:31.474Z,16.48
2022-10-04T08:14:10.108Z,15.98
2022-10-04T08:16:45.106Z,16.85
2022-10-04T08:19:29.073Z,15.80
2022-10-04T08:22:06.370Z,16.40
2022-10-04T08:24:43.361Z,15.40
2022-10-04T08:27:34.273Z,15.80
2022-10-04T08:30:11.082Z,15.60
2022-10-04T08:32:52.048Z,14.63
2022-10-04T08:35:37.055Z,15.65
2022-10-04T08:38:36.972Z,14.75
2022-10-04T08:41:36.392Z,14.17
2022-10-04T08:44:38.493Z,14.30
2022-10-04T08:47:33.939Z,12.98
2022-10-04T08:50:44.275Z,13.30
2022-10-04T08:53:44.516Z,13.75
2022-10-04T08:56:21.533Z,13.20
2022-10-04T08:59:07.688Z,12.70
2022-10-04T09:02:12.158Z,12.82
2022-10-04T09:05:10.343Z,12.27
2022-10-04T09:08:07.351Z,11.98
2022-10-04T09:10:45.111Z,12.35
2022-10-04T09:13:31.300Z,12.43
2022-10-04T09:16:10.151Z,12.00
2022-10-04T09:18:53.953Z,12.67
2022-10-04T09:21:37.104Z,12.40
2022-10-04T09:24:44.473Z,11.07
2022-10-04T09:27:54.730Z,12.43
2022-10-04T09:30:36.794Z,13.35
2022-10-04T09:33:37.162Z,11.65
2022-10-04T09:36:40.590Z,11.60
2022-10-04T09:39:47.398Z,12.60
2022-10-04T09:42:47.409Z,11.10
2022-10-04T09:45:37.609Z,11.45
2022-10-04T09:48:27.016Z,11.40
2022-10-04T09:51:14.961Z,10.20
2022-10-04T09:54:05.550Z,9.65
2022-10-04T09:57:09.897Z,11.13
2022-10-04T09:59:57.104Z,10.80
2022-10-04T10:03:02.630Z,10.50
2022-10-04T10:05:44.150Z,11.60
2022-10-04T10:08:27.396Z,10.30
2022-10-04T10:11:22.369Z,9.10
2022-10-04T10:14:35.055Z,9.38
2022-10-04T10:17:14.654Z,8.93
2022-10-04T10:20:08.605Z,9.65
2022-10-04T10:23:01.766Z,9.70
2022-10-04T10:25:41.759Z,8.80
2022-10-04T10:28:37.078Z,8.80
2022-10-04T10:31:27.295Z,8.70
2022-10-04T10:34:10.440Z,7.90
2022-10-04T10:36:48.239Z,8.93
2022-10-04T10:39:34.692Z,7.68
2022-10-04T10:42:17.689Z,8.10
2022-10-04T10:45:21.162Z,7.60
2022-10-04T10:47:56.267Z,7.55
2022-10-04T10:50:58.533Z,7.43
2022-10-04T10:54:11.278Z,7.60
2022-10-04T10:57:00.876Z,7.18
2022-10-04T11:00:04.300Z,8.48
2022-10-04T11:03:26.395Z,7.17
2022-10-04T11:06:30.147Z,7.70
2022-10-04T11:09:40.789Z,7.57
2022-10-04T11:13:01.204Z,7.60
2022-10-04T11:15:40.533Z,8.02
2022-10-04T11:18:45.226Z,8.40
2022-10-04T11:22:07.347Z,7.35
2022-10-04T11:25:11.535Z,6.18
2022-10-04T11:27:52.556Z,5.80
2022-10-04T11:30:24.897Z,6.38
2022-10-04T11:33:25.675Z,5.78
2022-10-04T11:36:16.904Z,6.50
2022-10-04T11:39:10.177Z,5.70
2022-10-04T11:41:58.583Z,5.20
2022-10-04T11:45:03.361Z,5.07
2022-10-04T11:47:56.186Z,4.55
2022-10-04T11:50:39.909Z,5.70
2022-10-04T11:53:52.635Z,5.43
2022-10-04T11:56:56.436Z,5.30
2022-10-04T11:59:39.312Z,5.88
2022-10-04T12:02:53.072Z,5.43
2022-10-04T12:05:46.711Z,5.70
2022-10-04T12:08:24.296Z,5.60
2022-10-04T12:11:14.572Z,5.63
2022-10-04T12:14:10.514Z,5.50
2022-10-04T12:16:54.901Z,5.63
2022-10-04T12:19:55.132Z,6.07
2022-10-04T12:22:46.219Z,6.25
2022-10-04T12:25:48.824Z,6.70
2022-10-04T12:28:49.905Z,6.50
2022-10-04T12:31:26.300Z,6.00
2022-10-04T12:34:03.937Z,6.07
2022-10-04T12:36:45.587Z,5.40
2022-10-04T12:39:33.600Z,6.20
2022-10-04T12:42:14.926Z,5.55
2022-10-04T12:44:55.847Z,5.68
2022-10-04T12:47:54.181Z,5.00
2022-10-04T12:50:32.277Z,5.75
2022-10-04T12:53:14.451Z,5.30
2022-10-04T12:56:00.637Z,6.17
2022-10-04T12:58:35.093Z,5.25
2022-10-04T13:01:17.264Z,5.50
2022-10-04T13:04:08.680Z,4.70
2022-10-04T13:06:49.815Z,5.20
2022-10-04T13:09:28.012Z,4.80
2022-10-04T13:12:16.306Z,4.07
2022-10-04T13:15:08.557Z,5.30
2022-10-04T13:17:50.033Z,5.60
2022-10-04T13:20:46.533Z,4.75
2022-10-04T13:23:27.020Z,5.10
2022-10-04T13:26:07.301Z,5.20
2022-10-04T13:28:45.520Z,5.20
2022-10-04T13:31:23.877Z,4.60
2022-10-04T13:34:03.272Z,5.30
2022-10-04T13:36:45.687Z,5.32
2022-10-04T13:39:30.866Z,5.10
2022-10-04T13:42:17.842Z,5.47
2022-10-04T13:45:02.586Z,4.97
2022-10-04T13:47:47.411Z,4.50
2022-10-04T13:50:44.943Z,4.60
2022-10-04T13:53:55.716Z,5.07
2022-10-04T13:57:08.648Z,5.32
2022-10-04T13:59:46.681Z,5.10
2022-10-04T14:03:06.736Z,5.05
2022-10-04T14:06:06.802Z,5.70
2022-10-04T14:09:02.823Z,5.50
2022-10-04T14:12:04.557Z,4.82
2022-10-04T14:15:04.301Z,5.30
2022-10-04T14:18:04.334Z,5.27
2022-10-04T14:21:19.919Z,5.10
2022-10-04T14:24:34.561Z,5.40
2022-10-04T14:27:37.381Z,5.40
2022-10-04T14:30:24.337Z,5.10
2022-10-04T14:33:16.128Z,4.80
2022-10-04T14:35:49.942Z,5.30
2022-10-04T14:38:37.457Z,4.73
2022-10-04T14:41:41.217Z,5.35
2022-10-04T14:44:45.777Z,5.28
2022-10-04T14:47:29.791Z,4.60
2022-10-04T14:50:24.908Z,4.93
2022-10-04T14:53:11.461Z,4.93
2022-10-04T14:55:55.766Z,4.53
2022-10-04T14:58:32.063Z,4.47
2022-10-04T15:01:19.702Z,4.13
2022-10-04T15:04:11.227Z,4.20
2022-10-04T15:06:48.586Z,4.70
2022-10-04T15:09:43.060Z,5.03
2022-10-04T15:13:05.764Z,4.70
2022-10-04T15:15:40.191Z,4.07
2022-10-04T15:18:26.409Z,5.15
2022-10-04T15:21:00.905Z,4.22
2022-10-04T15:23:37.880Z,4.70
2022-10-04T15:26:50.488Z,4.20
2022-10-04T15:29:26.473Z,4.88
2022-10-04T15:32:05.102Z,4.60
2022-10-04T15:34:38.813Z,4.40
2022-10-04T15:37:15.188Z,4.72
2022-10-04T15:40:04.028Z,4.40
2022-10-04T15:42:36.838Z,4.78
2022-10-04T15:45:36.668Z,5.10
2022-10-04T15:48:30.454Z,5.55
2022-10-04T15:51:04.842Z,5.32
2022-10-04T15:53:53.650Z,5.10
2022-10-04T15:56:34.173Z,5.50
2022-10-04T15:59:30.989Z,5.43
2022-10-04T16:02:20.518Z,5.43
2022-10-04T16:05:00.385Z,5.50
2022-10-04T16:08:04.625Z,5.68
2022-10-04T16:10:55.068Z,5.10
2022-10-04T16:13:40.850Z,5.65
2022-10-04T16:16:36.560Z,6.03
2022-10-04T16:19:12.969Z,5.10
2022-10-04T16:21:51.774Z,5.25
2022-10-04T16:24:45.592Z,4.43
2022-10-04T16:27:36.822Z,5.03
2022-10-04T16:30:25.965Z,4.80
2022-10-04T16:33:09.278Z,4.60
2022-10-04T16:35:43.023Z,4.10
2022-10-04T16:38:22.971Z,4.30
2022-10-04T16:41:10.545Z,4.18
2022-10-04T16:43:49.655Z,4.30
2022-10-04T16:46:27.015Z,4.13
2022-10-04T16:48:59.620Z,4.30
2022-10-04T16:51:55.947Z,4.50
2022-10-04T16:54:46.806Z,4.00
2022-10-04T16:57:22.347Z,3.83
2022-10-04T16:59:55.557Z,3.97
2022-10-04T17:02:49.157Z,3.60
2022-10-04T17:05:30.805Z,3.80
2022-10-04T17:08:28.421Z,3.97
2022-10-04T17:11:18.280Z,3.90
2022-10-04T17:13:56.848Z,3.87
2022-10-04T17:16:34.586Z,3.33
2022-10-04T17:19:25.658Z,4.00
2022-10-04T17:22:06.834Z,3.78
2022-10-04T17:24:49.625Z,4.20
2022-10-04T17:27:28.157Z,4.60
2022-10-04T17:30:16.407Z,4.17
2022-10-04T17:32:56.341Z,4.27
2022-10-04T17:35:55.218Z,4.40
2022-10-04T17:38:31.821Z,4.18
2022-10-04T17:41:09.042Z,3.72
2022-10-04T17:43:44.591Z,4.30
2022-10-04T17:46:19.225Z,4.22
2022-10-04T17:49:11.044Z,4.30
2022-10-04T17:52:03.459Z,4.00
2022-10-04T17:54:59.334Z,4.10
2022-10-04T17:57:34.135Z,4.10
2022-10-04T18:00:09.396Z,4.50
2022-10-04T18:02:53.622Z,3.80
2022-10-04T18:05:27.797Z,4.00
2022-10-04T18:08:00.443Z,3.92
2022-10-04T18:10:34.583Z,4.20
2022-10-04T18:13:06.486Z,4.25
2022-10-04T18:15:39.388Z,4.03
2022-10-04T18:18:16.334Z,4.60
2022-10-04T18:21:06.110Z,4.40
2022-10-04T18:23:36.928Z,4.35
2022-10-04T18:26:17.425Z,4.60
2022-10-04T18:28:45.749Z,3.70
2022-10-04T18:31:30.730Z,4.28
2022-10-04T18:34:02.200Z,4.57
2022-10-04T18:36:32.819Z,4.15
2022-10-04T18:39:18.080Z,4.57
2022-10-04T18:42:01.568Z,4.07
2022-10-04T18:44:44.359Z,3.80
2022-10-04T18:47:18.711Z,4.00
2022-10-04T18:49:51.037Z,3.70
2022-10-04T18:52:31.680Z,4.18
2022-10-04T18:55:11.008Z,3.90
2022-10-04T18:57:58.401Z,3.90
2022-10-04T19:00:49.853Z,3.80
2022-10-04T19:03:26.093Z,3.70
2022-10-04T19:06:02.879Z,3.97
2022-10-04T19:08:46.090Z,4.50
2022-10-04T19:11:20.145Z,3.80
2022-10-04T19:13:54.024Z,3.85
2022-10-04T19:16:42.813Z,5.10
2022-10-04T19:19:33.010Z,4.10
2022-10-04T19:22:11.018Z,4.20
2022-10-04T19:24:54.162Z,3.95
2022-10-04T19:27:27.357Z,3.90
2022-10-04T19:30:16.374Z,4.13
2022-10-04T19:32:56.749Z,4.20
2022-10-04T19:35:46.042Z,3.92
2022-10-04T19:38:27.166Z,3.67
2022-10-04T19:41:04.972Z,4.03
2022-10-04T19:43:42.222Z,3.70
2022-10-04T19:46:23.674Z,3.88
2022-10-04T19:48:53.250Z,4.15
2022-10-04T19:51:29.846Z,4.30
2022-10-04T19:54:04.709Z,4.00
2022-10-04T19:56:36.954Z,4.03
2022-10-04T19:59:09.262Z,4.50
2022-10-04T20:01:38.660Z,4.40
2022-10-04T20:04:31.514Z,4.00
2022-10-04T20:07:02.745Z,3.97
2022-10-04T20:09:51.349Z,3.75
2022-10-04T20:12:37.178Z,5.20
2022-10-04T20:15:25.114Z,4.65
2022-10-04T20:17:58.081Z,4.63
2022-10-04T20:21:03.371Z,5.30
2022-10-04T20:23:56.637Z,4.45
2022-10-04T20:26:56.248Z,4.28
2022-10-04T20:30:03.887Z,3.55
2022-10-04T20:32:57.549Z,3.58
2022-10-04T20:36:08.932Z,3.05
2022-10-04T20:38:59.406Z,2.55
2022-10-04T20:42:18.099Z,2.65
2022-10-04T20:44:51.165Z,2.30
2022-10-04T20:47:31.681Z,2.50
2022-10-04T20:50:02.878Z,1.90
2022-10-04T20:52:33.470Z,2.60
2022-10-04T20:55:02.881Z,2.20
2022-10-04T20:57:31.484Z,2.40
2022-10-04T20:59:59.905Z,2.73
2022-10-04T21:02:28.875Z,3.00
2022-10-04T21:05:14.860Z,2.63
2022-10-04T21:07:42.879Z,3.10
2022-10-04T21:10:18.847Z,2.70
2022-10-04T21:12:47.237Z,2.90
2022-10-04T21:15:21.896Z,2.40
2022-10-04T21:18:04.157Z,2.85
2022-10-04T21:20:49.817Z,2.60
2022-10-04T21:23:30.510Z,2.35
2022-10-04T21:26:19.778Z,2.53
2022-10-04T21:28:47.876Z,2.30
2022-10-04T21:31:15.894Z,2.17
2022-10-04T21:33:43.780Z,1.92
2022-10-04T21:36:13.006Z,1.90
2022-10-04T21:38:40.958Z,1.83
2022-10-04T21:41:08.968Z,1.70
2022-10-04T21:43:36.864Z,1.63
2022-10-04T21:46:04.943Z,2.00
2022-10-04T21:48:32.851Z,1.60
2022-10-04T21:51:00.777Z,1.40
2022-10-04T21:53:29.991Z,1.63
2022-10-04T21:55:57.878Z,1.40
2022-10-04T21:58:25.809Z,1.50
2022-10-04T22:00:53.745Z,1.42
2022-10-04T22:03:21.686Z,1.40
2022-10-04T22:05:49.621Z,1.67
2022-10-04T22:08:17.498Z,1.80
2022-10-04T22:10:47.270Z,1.73
2022-10-04T22:13:15.349Z,1.60
2022-10-04T22:15:43.240Z,1.80
2022-10-04T22:18:11.137Z,1.90
2022-10-04T22:20:39.105Z,2.40
2022-10-04T22:23:16.389Z,2.08
2022-10-04T22:25:44.260Z,2.75
2022-10-04T22:28:21.892Z,2.60
2022-10-04T22:30:50.642Z,3.00
2022-10-04T22:33:28.269Z,3.38
2022-10-04T22:35:57.777Z,3.45
2022-10-04T22:38:25.788Z,3.80
2022-10-04T22:40:54.212Z,4.30
2022-10-04T22:43:23.506Z,4.40
2022-10-04T22:45:51.519Z,4.43
2022-10-04T22:48:19.484Z,4.70
2022-10-04T22:50:47.417Z,4.18
2022-10-04T22:53:20.688Z,4.30
2022-10-04T22:55:49.270Z,3.95
2022-10-04T22:58:18.366Z,4.20
2022-10-04T23:00:48.060Z,3.80
2022-10-04T23:03:25.224Z,4.27
2022-10-04T23:05:53.077Z,4.13
2022-10-04T23:08:21.082Z,3.53
2022-10-04T23:10:49.060Z,3.30
2022-10-04T23:13:19.259Z,3.20
2022-10-04T23:15:52.128Z,3.20
2022-10-04T23:18:20.471Z,2.70
2022-10-04T23:20:52.770Z,2.45
2022-10-04T23:23:22.155Z,2.83
2022-10-04T23:25:50.687Z,2.50
2022-10-04T23:28:20.130Z,2.80
2022-10-04T23:30:56.710Z,2.42
2022-10-04T23:33:24.927Z,2.63
2022-10-04T23:35:54.533Z,2.40
2022-10-04T23:38:24.422Z,2.30
2022-10-04T23:40:52.442Z,2.03
2022-10-04T23:43:24.986Z,1.98
2022-10-04T23:45:56.445Z,2.17
2022-10-04T23:48:27.871Z,1.77
2022-10-04T23:50:59.688Z,2.00
2022-10-04T23:53:31.770Z,2.60
2022-10-04T23:56:03.508Z,1.80
2022-10-04T23:58:35.062Z,2.17
